createdAt,value
2024-03-07T00:01:51.281Z,53.80
2024-03-07T00:04:20.018Z,53.97
2024-03-07T00:06:49.732Z,54.14
2024-03-07T00:09:18.174Z,54.32
2024-03-07T00:11:46.666Z,54.23
2024-03-07T00:14:15.087Z,54.04
2024-03-07T00:16:43.505Z,53.96
2024-03-07T00:19:12.011Z,53.92
2024-03-07T00:21:40.405Z,53.95
2024-03-07T00:24:09.599Z,54.43
2024-03-07T00:26:38.183Z,54.44
2024-03-07T00:29:07.969Z,54.94
2024-03-07T00:31:36.259Z,55.00
2024-03-07T00:34:10.336Z,55.40
2024-03-07T00:36:45.016Z,55.43
2024-03-07T00:39:13.578Z,55.66
2024-03-07T00:41:42.759Z,55.63
2024-03-07T00:44:11.331Z,55.71
2024-03-07T00:46:39.696Z,55.42
2024-03-07T00:49:07.986Z,55.78
2024-03-07T00:51:38.159Z,56.14
2024-03-07T00:54:08.573Z,56.39
2024-03-07T00:56:37.792Z,56.61
2024-03-07T00:59:06.883Z,56.58
2024-03-07T01:01:37.632Z,56.70
2024-03-07T01:04:06.384Z,57.11
2024-03-07T01:06:35.649Z,57.00
2024-03-07T01:09:04.706Z,57.25
2024-03-07T01:11:33.140Z,56.97
2024-03-07T01:14:01.484Z,56.98
2024-03-07T01:16:29.826Z,56.76
2024-03-07T01:18:59.182Z,56.87
2024-03-07T01:21:27.658Z,56.95
2024-03-07T01:23:56.068Z,56.61
2024-03-07T01:26:26.120Z,56.92
2024-03-07T01:28:56.104Z,57.01
2024-03-07T01:31:25.052Z,56.71
2024-03-07T01:33:53.503Z,56.83
2024-03-07T01:36:22.087Z,57.12
2024-03-07T01:38:50.469Z,56.63
2024-03-07T01:41:19.444Z,56.41
2024-03-07T01:43:47.804Z,56.78
2024-03-07T01:46:16.239Z,56.88
2024-03-07T01:48:45.130Z,56.71
2024-03-07T01:51:13.767Z,56.81
2024-03-07T01:53:42.481Z,56.95
2024-03-07T01:56:12.094Z,57.10
2024-03-07T01:58:41.036Z,57.32
2024-03-07T02:01:09.556Z,57.42
2024-03-07T02:03:38.190Z,57.07
2024-03-07T02:06:06.896Z,57.23
2024-03-07T02:08:36.199Z,57.16
2024-03-07T02:11:05.126Z,57.48
2024-03-07T02:13:33.537Z,57.56
2024-03-07T02:16:02.358Z,57.22
2024-03-07T02:18:30.649Z,57.46
2024-03-07T02:20:59.800Z,57.60
2024-03-07T02:23:29.127Z,57.25
2024-03-07T02:26:00.264Z,57.50
2024-03-07T02:28:30.218Z,58.00
2024-03-07T02:30:58.593Z,58.04
2024-03-07T02:33:27.226Z,58.10
2024-03-07T02:35:55.805Z,58.20
2024-03-07T02:38:24.142Z,58.22
2024-03-07T02:40:53.120Z,57.79
2024-03-07T02:43:22.504Z,57.79
2024-03-07T02:45:51.479Z,57.99
2024-03-07T02:48:20.152Z,58.09
2024-03-07T02:50:49.112Z,58.09
2024-03-07T02:53:18.197Z,58.09
2024-03-07T02:55:46.577Z,58.43
2024-03-07T02:58:15.348Z,58.11
2024-03-07T03:00:43.479Z,58.37
2024-03-07T03:03:11.669Z,58.40
2024-03-07T03:05:40.482Z,58.49
2024-03-07T03:08:09.078Z,58.27
2024-03-07T03:10:37.405Z,58.10
2024-03-07T03:13:06.099Z,58.15
2024-03-07T03:15:34.632Z,57.95
2024-03-07T03:18:04.796Z,58.12
2024-03-07T03:20:37.076Z,58.08
2024-03-07T03:23:15.452Z,58.21
2024-03-07T03:25:52.474Z,58.20
2024-03-07T03:28:22.590Z,58.19
2024-03-07T03:30:53.001Z,58.09
2024-03-07T03:33:24.471Z,58.22
2024-03-07T03:35:52.843Z,58.51
2024-03-07T03:38:22.874Z,58.44
2024-03-07T03:40:51.303Z,58.25
2024-03-07T03:43:19.972Z,57.91
2024-03-07T03:45:48.980Z,57.90
2024-03-07T03:48:17.985Z,58.11
2024-03-07T03:50:48.129Z,58.19
2024-03-07T03:53:16.689Z,58.26
2024-03-07T03:55:45.331Z,58.14
2024-03-07T03:58:16.209Z,58.14
2024-03-07T04:00:44.544Z,58.10
2024-03-07T04:03:13.051Z,58.34
2024-03-07T04:05:42.472Z,58.27
2024-03-07T04:08:11.522Z,58.11
2024-03-07T04:10:41.016Z,58.46
2024-03-07T04:13:09.688Z,58.41
2024-03-07T04:15:39.465Z,58.23
2024-03-07T04:18:09.074Z,58.32
2024-03-07T04:20:37.764Z,58.27
2024-03-07T04:23:08.705Z,58.27
2024-03-07T04:25:38.133Z,58.55
2024-03-07T04:28:06.594Z,58.36
2024-03-07T04:30:34.851Z,58.39
2024-03-07T04:33:03.517Z,58.54
2024-03-07T04:35:32.606Z,58.52
2024-03-07T04:38:01.057Z,58.33
2024-03-07T04:40:29.577Z,58.19
2024-03-07T04:42:58.019Z,58.09
2024-03-07T04:45:26.436Z,58.26
2024-03-07T04:47:54.817Z,58.43
2024-03-07T04:50:23.205Z,58.40
2024-03-07T04:52:51.676Z,58.39
2024-03-07T04:55:20.731Z,58.59
2024-03-07T04:57:49.723Z,58.69
2024-03-07T05:00:21.300Z,58.83
2024-03-07T05:02:52.413Z,58.65
2024-03-07T05:05:24.644Z,58.84
2024-03-07T05:07:54.051Z,58.73
2024-03-07T05:10:22.782Z,58.37
2024-03-07T05:12:51.987Z,58.48
2024-03-07T05:15:20.545Z,58.53
2024-03-07T05:17:48.994Z,58.51
2024-03-07T05:20:18.037Z,58.74
2024-03-07T05:22:52.305Z,58.77
2024-03-07T05:25:23.297Z,58.73
2024-03-07T05:27:52.357Z,58.76
2024-03-07T05:30:21.084Z,58.58
2024-03-07T05:32:49.665Z,58.47
2024-03-07T05:35:21.647Z,58.25
2024-03-07T05:37:52.758Z,58.10
2024-03-07T05:40:21.963Z,58.22
2024-03-07T05:42:50.928Z,58.20
2024-03-07T05:45:19.584Z,57.82
2024-03-07T05:47:49.396Z,57.96
2024-03-07T05:50:19.655Z,57.90
2024-03-07T05:52:50.077Z,58.19
2024-03-07T05:55:20.909Z,58.45
2024-03-07T05:57:49.381Z,58.19
2024-03-07T06:00:29.017Z,58.20
2024-03-07T06:02:58.317Z,57.89
2024-03-07T06:05:28.388Z,57.84
2024-03-07T06:07:57.873Z,57.75
2024-03-07T06:10:26.495Z,57.60
2024-03-07T06:15:26.494Z,57.47
2024-03-07T06:17:55.356Z,57.59
2024-03-07T06:20:24.393Z,57.50
2024-03-07T06:22:56.401Z,57.51
2024-03-07T06:25:35.643Z,57.43
2024-03-07T06:28:10.914Z,57.58
2024-03-07T06:30:44.284Z,57.55
2024-03-07T06:33:13.999Z,57.80
2024-03-07T06:35:42.862Z,57.77
2024-03-07T06:38:11.607Z,57.51
2024-03-07T06:40:41.626Z,57.37
2024-03-07T06:43:13.945Z,57.01
2024-03-07T06:45:47.426Z,57.33
2024-03-07T06:48:16.011Z,57.48
2024-03-07T06:50:46.261Z,57.28
2024-03-07T06:53:14.586Z,57.10
2024-03-07T06:55:43.190Z,57.03
2024-03-07T06:58:11.767Z,57.15
2024-03-07T07:00:41.635Z,57.19
2024-03-07T07:03:11.628Z,57.19
2024-03-07T07:05:43.455Z,57.01
2024-03-07T07:08:11.779Z,56.75
2024-03-07T07:10:41.541Z,56.61
2024-03-07T07:13:11.685Z,56.36
2024-03-07T07:15:40.555Z,56.50
2024-03-07T07:18:08.998Z,56.26
2024-03-07T07:20:38.374Z,55.86
2024-03-07T07:23:07.561Z,55.53
2024-03-07T07:25:36.057Z,55.64
2024-03-07T07:28:10.536Z,55.65
2024-03-07T07:30:39.706Z,55.59
2024-03-07T07:33:09.169Z,55.37
2024-03-07T07:35:38.609Z,55.56
2024-03-07T07:38:08.447Z,55.37
2024-03-07T07:40:37.493Z,55.05
2024-03-07T07:43:06.457Z,54.82
2024-03-07T07:45:37.619Z,54.91
2024-03-07T07:48:06.737Z,54.80
2024-03-07T07:50:36.193Z,54.30
2024-03-07T07:53:10.316Z,54.06
2024-03-07T07:55:39.808Z,54.07
2024-03-07T07:58:08.736Z,54.01
2024-03-07T08:00:38.364Z,54.09
2024-03-07T08:03:07.611Z,54.24
2024-03-07T08:05:37.570Z,53.70
2024-03-07T08:08:08.384Z,53.67
2024-03-07T08:10:41.275Z,52.44
2024-03-07T08:13:11.980Z,52.65
2024-03-07T08:15:40.930Z,52.40
2024-03-07T08:18:12.773Z,52.49
2024-03-07T08:20:42.779Z,52.47
2024-03-07T08:23:12.149Z,52.38
2024-03-07T08:25:42.123Z,52.07
2024-03-07T08:28:10.921Z,51.92
2024-03-07T08:30:39.714Z,52.25
2024-03-07T08:33:08.898Z,51.81
2024-03-07T08:35:37.976Z,51.33
2024-03-07T08:38:06.605Z,51.07
2024-03-07T08:40:35.702Z,50.16
2024-03-07T08:43:05.143Z,50.14
2024-03-07T08:45:36.964Z,49.91
2024-03-07T08:48:06.728Z,49.24
2024-03-07T08:50:36.098Z,49.49
2024-03-07T08:53:08.758Z,49.06
2024-03-07T08:55:38.011Z,49.22
2024-03-07T08:58:10.080Z,48.87
2024-03-07T09:00:40.065Z,49.45
2024-03-07T09:03:13.716Z,49.15
2024-03-07T09:05:44.400Z,48.82
2024-03-07T09:08:12.819Z,48.63
2024-03-07T09:10:43.063Z,48.57
2024-03-07T09:13:12.492Z,47.76
2024-03-07T09:15:41.239Z,47.33
2024-03-07T09:18:10.418Z,46.65
2024-03-07T09:20:40.452Z,46.37
2024-03-07T09:23:09.023Z,47.01
2024-03-07T09:25:37.458Z,45.73
2024-03-07T09:28:07.723Z,45.28
2024-03-07T09:30:40.296Z,45.69
2024-03-07T09:33:12.396Z,45.47
2024-03-07T09:35:41.655Z,45.24
2024-03-07T09:38:10.282Z,43.76
2024-03-07T09:40:39.042Z,43.76
2024-03-07T09:43:11.214Z,42.61
2024-03-07T09:45:42.633Z,42.24
2024-03-07T09:48:14.373Z,41.87
2024-03-07T09:50:48.067Z,41.45
2024-03-07T09:53:18.329Z,38.60
2024-03-07T09:55:47.010Z,38.31
2024-03-07T09:58:20.961Z,38.68
2024-03-07T10:00:52.232Z,38.30
2024-03-07T10:03:25.162Z,34.16
2024-03-07T10:05:54.350Z,34.93
2024-03-07T10:08:25.345Z,33.13
2024-03-07T10:10:57.468Z,32.38
2024-03-07T10:13:27.184Z,33.31
2024-03-07T10:16:01.411Z,33.09
2024-03-07T10:18:30.415Z,32.45
2024-03-07T10:20:59.939Z,29.64
2024-03-07T10:23:28.580Z,29.36
2024-03-07T10:25:58.260Z,29.87
2024-03-07T10:28:29.361Z,30.72
2024-03-07T10:30:57.749Z,30.09
2024-03-07T10:33:29.847Z,28.98
2024-03-07T10:35:58.967Z,29.06
2024-03-07T10:38:27.309Z,29.14
2024-03-07T10:40:56.944Z,28.97
2024-03-07T10:43:30.586Z,29.24
2024-03-07T10:46:03.257Z,27.67
2024-03-07T10:48:40.536Z,28.74
2024-03-07T10:51:23.302Z,27.83
2024-03-07T10:54:15.550Z,27.71
2024-03-07T10:57:09.994Z,27.63
2024-03-07T10:59:43.352Z,28.88
2024-03-07T11:02:39.203Z,29.37
2024-03-07T11:05:13.481Z,28.79
2024-03-07T11:07:42.758Z,27.80
2024-03-07T11:10:13.069Z,27.39
2024-03-07T11:12:43.150Z,25.07
2024-03-07T11:15:16.486Z,26.23
2024-03-07T11:17:45.636Z,26.86
2024-03-07T11:20:23.304Z,28.18
2024-03-07T11:22:54.891Z,27.41
2024-03-07T11:25:27.142Z,27.94
2024-03-07T11:28:02.398Z,28.41
2024-03-07T11:30:30.838Z,28.09
2024-03-07T11:33:03.414Z,27.97
2024-03-07T11:35:38.217Z,28.05
2024-03-07T11:38:11.994Z,28.62
2024-03-07T11:40:40.245Z,28.60
2024-03-07T11:43:08.926Z,28.90
2024-03-07T11:45:46.494Z,29.05
2024-03-07T11:48:16.073Z,29.68
2024-03-07T11:50:44.532Z,29.94
2024-03-07T11:53:13.018Z,29.63
2024-03-07T11:55:49.475Z,29.87
2024-03-07T11:58:22.519Z,29.71
2024-03-07T12:00:53.282Z,29.21
2024-03-07T12:03:23.448Z,29.52
2024-03-07T12:05:53.727Z,29.93
2024-03-07T12:08:26.269Z,30.10
2024-03-07T12:10:58.583Z,30.32
2024-03-07T12:13:29.416Z,30.58
2024-03-07T12:16:00.237Z,30.61
2024-03-07T12:18:30.578Z,30.40
2024-03-07T12:21:00.450Z,30.79
2024-03-07T12:23:29.569Z,31.31
2024-03-07T12:26:05.728Z,31.32
2024-03-07T12:28:35.794Z,31.05
2024-03-07T12:31:07.297Z,31.04
2024-03-07T12:33:41.066Z,30.33
2024-03-07T12:36:12.087Z,30.27
2024-03-07T12:38:43.555Z,30.58
2024-03-07T12:41:16.891Z,30.40
2024-03-07T12:43:47.523Z,28.96
2024-03-07T12:46:17.234Z,28.90
2024-03-07T12:48:50.874Z,28.23
2024-03-07T12:51:20.935Z,28.49
2024-03-07T12:53:50.523Z,28.36
2024-03-07T12:56:20.266Z,27.81
2024-03-07T12:58:51.597Z,26.26
2024-03-07T13:01:22.236Z,26.95
2024-03-07T13:03:51.297Z,26.77
2024-03-07T13:06:38.172Z,26.39
2024-03-07T13:09:11.800Z,26.28
2024-03-07T13:11:48.084Z,25.62
2024-03-07T13:14:16.450Z,24.22
2024-03-07T13:16:44.914Z,23.81
2024-03-07T13:19:13.397Z,24.21
2024-03-07T13:21:41.920Z,24.67
2024-03-07T13:24:11.014Z,24.15
2024-03-07T13:26:41.161Z,24.70
2024-03-07T13:29:11.244Z,23.87
2024-03-07T13:31:41.614Z,23.30
2024-03-07T13:34:16.869Z,23.30
2024-03-07T13:36:46.436Z,22.89
2024-03-07T13:39:17.881Z,23.43
2024-03-07T13:41:49.654Z,23.50
2024-03-07T13:44:20.858Z,23.32
2024-03-07T13:46:49.381Z,21.94
2024-03-07T13:49:18.670Z,22.52
2024-03-07T13:51:54.761Z,22.61
2024-03-07T13:54:49.797Z,22.52
2024-03-07T13:57:44.715Z,22.50
2024-03-07T14:00:22.056Z,22.98
2024-03-07T14:02:53.245Z,23.68
2024-03-07T14:05:41.654Z,22.96
2024-03-07T14:08:34.855Z,22.89
2024-03-07T14:11:36.709Z,22.92
2024-03-07T14:14:40.725Z,23.36
2024-03-07T14:17:11.713Z,23.02
2024-03-07T14:19:56.178Z,22.69
2024-03-07T14:22:53.547Z,22.65
2024-03-07T14:25:56.662Z,23.27
2024-03-07T14:28:53.801Z,23.72
2024-03-07T14:31:23.963Z,23.55
2024-03-07T14:33:58.816Z,23.46
2024-03-07T14:36:47.045Z,24.37
2024-03-07T14:39:23.984Z,24.45
2024-03-07T14:42:05.549Z,23.80
2024-03-07T14:44:36.143Z,24.56
2024-03-07T14:47:07.528Z,24.39
2024-03-07T14:49:37.668Z,24.60
2024-03-07T14:52:17.241Z,24.33
2024-03-07T14:54:46.197Z,24.56
2024-03-07T14:57:14.879Z,24.72
2024-03-07T14:59:44.645Z,24.90
2024-03-07T15:02:15.389Z,24.85
2024-03-07T15:04:45.007Z,24.84
2024-03-07T15:07:13.279Z,24.57
2024-03-07T15:09:41.688Z,24.18
2024-03-07T15:12:10.526Z,24.64
2024-03-07T15:14:41.032Z,25.12
2024-03-07T15:17:10.674Z,25.54
2024-03-07T15:19:39.888Z,26.05
2024-03-07T15:22:08.548Z,27.07
2024-03-07T15:24:38.432Z,27.92
2024-03-07T15:27:06.998Z,29.27
2024-03-07T15:29:37.920Z,30.85
2024-03-07T15:32:09.503Z,32.13
2024-03-07T15:34:39.192Z,33.08
2024-03-07T15:37:09.159Z,33.67
2024-03-07T15:39:40.154Z,34.54
2024-03-07T15:42:10.695Z,35.10
2024-03-07T15:44:41.293Z,36.22
2024-03-07T15:47:09.829Z,36.72
2024-03-07T15:49:42.067Z,37.49
2024-03-07T15:52:10.977Z,38.24
2024-03-07T15:54:39.588Z,38.51
2024-03-07T15:57:08.020Z,38.89
2024-03-07T15:59:37.017Z,39.46
2024-03-07T16:02:06.082Z,39.24
2024-03-07T16:04:35.283Z,39.77
2024-03-07T16:07:04.833Z,40.31
2024-03-07T16:09:33.260Z,41.19
2024-03-07T16:12:03.165Z,41.02
2024-03-07T16:14:32.065Z,41.27
2024-03-07T16:17:00.572Z,41.65
2024-03-07T16:19:29.159Z,41.21
2024-03-07T16:21:57.664Z,41.59
2024-03-07T16:24:25.930Z,42.20
2024-03-07T16:26:54.571Z,41.62
2024-03-07T16:29:23.841Z,42.20
2024-03-07T16:31:52.474Z,42.29
2024-03-07T16:34:25.656Z,42.63
2024-03-07T16:36:57.819Z,42.80
2024-03-07T16:39:26.470Z,42.69
2024-03-07T16:41:54.997Z,43.10
2024-03-07T16:44:23.988Z,42.89
2024-03-07T16:46:52.806Z,42.93
2024-03-07T16:49:21.240Z,43.38
2024-03-07T16:51:50.166Z,43.18
2024-03-07T16:54:18.517Z,43.04
2024-03-07T16:56:47.182Z,43.21
2024-03-07T16:59:15.882Z,43.07
2024-03-07T17:01:46.728Z,42.57
2024-03-07T17:04:15.269Z,43.30
2024-03-07T17:06:43.849Z,43.00
2024-03-07T17:09:12.508Z,42.76
2024-03-07T17:11:42.688Z,43.04
2024-03-07T17:14:14.957Z,43.18
2024-03-07T17:16:44.441Z,43.10
2024-03-07T17:19:14.088Z,43.46
2024-03-07T17:21:42.680Z,43.61
2024-03-07T17:24:11.517Z,43.92
2024-03-07T17:26:40.378Z,44.38
2024-03-07T17:29:10.086Z,44.42
2024-03-07T17:31:38.346Z,44.98
2024-03-07T17:34:07.715Z,44.84
2024-03-07T17:36:36.114Z,45.46
2024-03-07T17:39:14.433Z,45.94
2024-03-07T17:41:43.465Z,45.92
2024-03-07T17:44:18.554Z,45.99
2024-03-07T17:46:47.504Z,45.93
2024-03-07T17:49:18.071Z,45.36
2024-03-07T17:51:46.368Z,45.40
2024-03-07T17:54:16.655Z,45.81
2024-03-07T17:56:45.254Z,45.55
2024-03-07T17:59:13.734Z,46.30
2024-03-07T18:01:43.906Z,46.08
2024-03-07T18:04:12.346Z,46.46
2024-03-07T18:06:40.859Z,46.30
2024-03-07T18:09:16.074Z,46.26
2024-03-07T18:11:44.490Z,46.49
2024-03-07T18:14:13.085Z,46.79
2024-03-07T18:16:41.384Z,47.31
2024-03-07T18:19:11.322Z,47.07
2024-03-07T18:21:40.173Z,47.21
2024-03-07T18:24:11.443Z,47.63
2024-03-07T18:26:39.996Z,47.59
2024-03-07T18:29:08.466Z,47.93
2024-03-07T18:31:37.275Z,47.73
2024-03-07T18:34:07.754Z,47.40
2024-03-07T18:36:36.333Z,47.47
2024-03-07T18:39:16.701Z,47.66
2024-03-07T18:41:52.176Z,47.55
2024-03-07T18:44:20.561Z,47.47
2024-03-07T18:46:49.045Z,47.64
2024-03-07T18:49:18.457Z,47.45
2024-03-07T18:51:50.220Z,47.42
2024-03-07T18:54:18.762Z,47.61
2024-03-07T18:56:47.981Z,47.61
2024-03-07T18:59:16.405Z,47.51
2024-03-07T19:01:45.077Z,47.49
2024-03-07T19:04:13.574Z,47.86
2024-03-07T19:06:42.635Z,47.80
2024-03-07T19:09:14.032Z,47.79
2024-03-07T19:11:47.047Z,48.05
2024-03-07T19:14:16.141Z,48.76
2024-03-07T19:16:52.812Z,48.76
2024-03-07T19:19:21.499Z,48.98
2024-03-07T19:21:50.365Z,49.10
2024-03-07T19:24:20.483Z,48.90
2024-03-07T19:26:52.264Z,48.44
2024-03-07T19:29:22.323Z,48.48
2024-03-07T19:31:54.083Z,48.51
2024-03-07T19:34:22.500Z,48.60
2024-03-07T19:36:55.024Z,48.59
2024-03-07T19:39:23.731Z,49.31
2024-03-07T19:41:58.990Z,49.39
2024-03-07T19:44:34.479Z,49.71
2024-03-07T19:47:06.226Z,49.51
2024-03-07T19:49:36.940Z,49.55
2024-03-07T19:52:11.608Z,49.04
2024-03-07T19:54:40.673Z,49.14
2024-03-07T19:57:12.553Z,49.05
2024-03-07T19:59:41.483Z,48.85
2024-03-07T20:02:10.013Z,48.75
2024-03-07T20:04:38.553Z,48.55
2024-03-07T20:07:12.005Z,48.43
2024-03-07T20:09:44.403Z,48.78
2024-03-07T20:12:17.669Z,49.06
2024-03-07T20:14:49.894Z,49.00
2024-03-07T20:17:18.316Z,48.70
2024-03-07T20:19:46.846Z,49.22
2024-03-07T20:22:15.686Z,49.02
2024-03-07T20:24:43.967Z,48.94
2024-03-07T20:27:12.839Z,49.54
2024-03-07T20:29:41.350Z,49.40
2024-03-07T20:32:10.364Z,49.37
2024-03-07T20:34:45.870Z,49.61
2024-03-07T20:37:14.213Z,49.65
2024-03-07T20:39:48.077Z,49.43
2024-03-07T20:42:19.750Z,49.29
2024-03-07T20:44:48.041Z,49.46
2024-03-07T20:47:16.403Z,49.54
2024-03-07T20:49:44.829Z,49.52
2024-03-07T20:52:13.104Z,49.30
2024-03-07T20:54:42.377Z,49.48
2024-03-07T20:57:11.080Z,49.48
2024-03-07T20:59:42.044Z,49.38
2024-03-07T21:02:10.510Z,49.29
2024-03-07T21:04:39.359Z,49.55
2024-03-07T21:07:09.773Z,49.33
2024-03-07T21:09:38.161Z,49.73
2024-03-07T21:12:09.632Z,49.31
2024-03-07T21:14:38.760Z,49.48
2024-03-07T21:17:12.424Z,49.49
2024-03-07T21:19:40.978Z,49.61
2024-03-07T21:22:09.933Z,50.06
2024-03-07T21:24:38.198Z,50.15
2024-03-07T21:27:07.561Z,50.57
2024-03-07T21:29:36.215Z,50.73
2024-03-07T21:32:05.476Z,50.73
2024-03-07T21:34:33.914Z,50.98
2024-03-07T21:37:03.153Z,50.94
2024-03-07T21:39:31.889Z,50.70
2024-03-07T21:42:00.454Z,50.69
2024-03-07T21:44:30.656Z,50.68
2024-03-07T21:47:00.034Z,50.57
2024-03-07T21:49:28.564Z,50.60
2024-03-07T21:51:57.103Z,50.19
2024-03-07T21:54:25.478Z,50.15
2024-03-07T21:56:54.109Z,50.47
2024-03-07T21:59:22.812Z,50.58
2024-03-07T22:01:51.295Z,50.41
2024-03-07T22:04:20.046Z,50.22
2024-03-07T22:06:48.976Z,50.12
2024-03-07T22:09:17.554Z,50.13
2024-03-07T22:11:46.059Z,49.97
2024-03-07T22:14:18.730Z,49.99
2024-03-07T22:16:54.897Z,49.87
2024-03-07T22:19:23.564Z,49.64
2024-03-07T22:21:51.901Z,49.73
2024-03-07T22:24:20.604Z,49.43
2024-03-07T22:26:49.320Z,49.66
2024-03-07T22:29:17.905Z,49.47
2024-03-07T22:31:46.402Z,49.43
2024-03-07T22:34:17.875Z,49.49
2024-03-07T22:36:53.549Z,49.36
2024-03-07T22:39:21.996Z,49.42
2024-03-07T22:41:51.196Z,49.22
2024-03-07T22:44:19.800Z,49.26
2024-03-07T22:46:48.574Z,49.34
2024-03-07T22:49:17.329Z,49.24
2024-03-07T22:51:45.563Z,49.19
2024-03-07T22:54:14.374Z,49.17
2024-03-07T22:56:44.655Z,49.17
2024-03-07T22:59:13.430Z,49.21
2024-03-07T23:01:42.839Z,49.03
2024-03-07T23:04:14.377Z,49.22
2024-03-07T23:06:43.068Z,49.09
2024-03-07T23:09:11.760Z,48.98
2024-03-07T23:11:41.094Z,48.80
2024-03-07T23:14:09.575Z,49.13
2024-03-07T23:16:38.022Z,49.20
2024-03-07T23:19:06.580Z,49.03
2024-03-07T23:21:35.063Z,49.13
2024-03-07T23:24:03.837Z,48.99
2024-03-07T23:26:33.437Z,49.13
2024-03-07T23:29:03.097Z,49.60
2024-03-07T23:31:31.670Z,49.42
2024-03-07T23:34:00.171Z,49.44
2024-03-07T23:36:30.489Z,49.38
2024-03-07T23:38:58.937Z,49.46
2024-03-07T23:41:27.368Z,49.56
2024-03-07T23:43:56.292Z,49.73
2024-03-07T23:46:25.239Z,49.94
2024-03-07T23:48:54.042Z,49.84
2024-03-07T23:51:22.908Z,50.09
2024-03-07T23:53:51.633Z,50.32
2024-03-07T23:56:19.924Z,50.64
2024-03-07T23:58:48.731Z,50.35
